Date,TemperatureHighF,TemperatureAvgF,TemperatureLowF,DewpointHighF,DewpointAvgF,DewpointLowF,HumidityHigh,HumidityAvg,HumidityLow,PressureMaxIn,PressureMinIn,WindSpeedMaxMPH,WindSpeedAvgMPH,GustSpeedMaxMPH,PrecipitationSumIn
2013-7-1,105.7,84.6,69.9,58.6,51.2,43.1,64,34,13,29.75,29.55,7,0,0,0.00
2013-7-2,98.5,76.3,63.9,67.5,57.1,47.1,83,55,24,29.84,29.63,8,0,0,0.02
2013-7-3,95.4,76.7,60.2,62.2,54.0,49.5,81,49,23,29.80,29.62,8,0,0,0.00
2013-7-4,99.9,82.4,63.3,56.0,51.4,46.4,64,38,18,29.70,29.51,5,0,0,0.00
2013-7-5,92.3,80.2,70.3,61.7,54.9,50.2,65,43,25,29.67,29.55,4,0,0,0.00
2013-7-6,97.4,76.7,64.8,67.6,56.4,52.0,86,52,24,29.69,29.57,6,0,0,0.03
2013-7-7,99.3,79.4,60.7,59.2,54.0,46.3,85,47,20,29.74,29.60,8,0,0,0.00
2013-7-8,103.9,84.0,63.6,57.9,49.3,37.9,69,35,11,29.79,29.64,11,0,0,0.00
2013-7-9,103.7,83.4,65.0,58.9,51.0,35.8,62,36,10,29.85,29.66,6,0,0,0.00
2013-7-10,99.1,77.8,67.8,68.6,61.2,51.5,94,61,25,29.78,29.64,6,0,0,0.11
2013-7-11,86.8,75.4,65.9,67.3,63.0,60.3,92,68,42,29.81,29.69,9,0,0,0.00
2013-7-12,90.4,70.6,61.4,65.3,61.5,57.5,97,77,35,29.84,29.72,6,0,0,0.00
2013-7-13,94.5,76.1,59.3,64.4,58.6,50.7,98,61,27,29.89,29.75,8,0,0,0.01
2013-7-14,100.3,80.8,63.7,62.5,56.4,51.3,79,47,20,29.81,29.64,6,1,0,0.00
2013-7-15,96.8,78.5,64.6,62.4,57.3,52.4,79,51,24,29.71,29.59,7,0,12,0.00
2013-7-16,85.3,74.9,66.0,63.2,60.4,55.3,87,62,42,29.88,29.69,6,0,0,0.00
2013-7-17,90.6,71.2,60.0,70.8,63.2,57.8,95,79,36,29.95,29.84,7,0,0,0.06
2013-7-18,92.8,75.8,62.2,66.7,61.8,54.4,97,66,34,29.92,29.71,6,0,0,0.02
2013-7-19,96.0,74.5,64.2,68.3,62.4,57.8,97,71,29,29.81,29.64,20,0,20,1.16
2013-7-20,87.8,71.3,61.8,72.6,65.7,61.2,98,85,46,29.79,29.63,8,0,0,0.35
2013-7-21,84.3,71.7,64.6,68.5,65.1,62.6,98,82,51,29.82,29.69,4,0,0,0.07
2013-7-22,83.9,73.0,63.9,66.8,64.4,61.2,96,76,52,29.86,29.76,4,0,0,0.00
2013-7-23,88.5,73.2,62.4,66.8,63.8,61.2,97,76,45,29.87,29.76,5,0,0,0.00
2013-7-25,91.3,79.4,68.9,69.0,66.3,61.1,89,66,40,29.87,29.75,4,0,0,0.19
2013-7-26,77.8,70.0,65.6,68.7,66.1,63.7,97,88,70,29.97,29.86,1,0,0,0.06
2013-7-27,66.6,65.9,65.6,60.9,60.5,59.6,83,83,82,29.76,29.76,1,0,0,0.01
2013-7-28,88.5,70.8,59.8,70.1,61.5,57.6,96,76,39,29.78,29.66,7,0,0,0.16
2013-7-29,92.0,74.7,58.8,62.9,56.2,46.4,98,59,26,29.91,29.76,6,0,0,0.00
2013-7-30,97.4,75.9,57.5,57.5,51.8,43.7,83,49,17,30.00,29.86,5,0,0,0.00
2013-7-31,98.8,79.5,61.4,61.9,54.7,47.9,77,48,19,29.94,29.77,7,0,0,0.00